Columbia Gorge Regional the Dalles Municipal Airport The Dalles US
ICAO: KDLS
IATA: DLS
Category: Medium
Scheduled Services: No

Elevation: 247 ft
TransAlt. 18000 ft.

Airport Communications:
ASOS:135.175
SEATTLE CNTR:119.65
SEATTLE RDO:122.65
CTAF/UNICOM:123

KDLS Zoom In..

Runways:

(A) RW 07 length 4647 ft width 100 ft
---- / hdg 69

(B) RW 13 length 5097 ft width 100 ft
---- / hdg 126

(C) RW 25 length 4647 ft width 100 ft
ILS 109.35 / hdg 249

(D) RW 31 length 5097 ft width 100 ft
---- / hdg 306

Location; KDLS
Day. 06 / Time. 05.53 Zulu
* Altimeter: 29.78
* Temperature: 24° c. 75.2°f.
* Wind from: 290° Speed 17 kn with Gusts up to 27 kn.
Dewpoint: 11° c.
Visibility: 10 Statute Miles.
Clouds: Clear (automated report).

KDLS 060553Z AUTO 29017G27KT 10SM CLR 24/11 A2978 RMK AO2 PK WND 29027/0544 SLP083 T02440106 10317 20244 53015

Going to: --> -->


Wind From 290°
Speed 17 kn.

 
 
jpsmedia worldairports.se 2020   terms of use